This is the latest recevied weather packets stored in our database for station/object EA5JZL-10. If no packets are shown the sender has not sent any weather packets the latest 10 day(s).
| Time | Temp. | Humidity | Pressure | Rain* | Wind** | Luminosity | Snow |
|---|---|---|---|---|---|---|---|
| 1777562490 | 24.44° C | 51% | 1014.4 hPa | - | - | - | - |
| 1777560690 | 23.89° C | 51% | 1014.3 hPa | - | - | - | - |
| 1777558937 | 23.89° C | 52% | 1014.6 hPa | - | - | - | - |
| 1777558890 | 23.89° C | 52% | 1014.6 hPa | - | - | - | - |
| 1777557130 | 23.89° C | 52% | 1014.7 hPa | - | - | - | - |
| 1777557090 | 23.89° C | 52% | 1014.7 hPa | - | - | - | - |
| 1777555323 | 24.44° C | 51% | 1015.1 hPa | - | - | - | - |
| 1777555290 | 24.44° C | 51% | 1015.1 hPa | - | - | - | - |
| 1777553489 | 23.33° C | 51% | 1015.2 hPa | - | - | - | - |
| 1777551689 | 23.33° C | 52% | 1015.5 hPa | - | - | - | - |
| 1777549889 | 24.44° C | 50% | 1015.7 hPa | - | - | - | - |
| 1777548089 | 23.33° C | 54% | 1016 hPa | - | - | - | - |
| 1777546289 | 22.78° C | 55% | 1016.4 hPa | - | - | - | - |
| 1777544489 | 22.22° C | 57% | 1016.6 hPa | - | - | - | - |
| 1777542688 | 22.78° C | 56% | 1016.9 hPa | - | - | - | - |
| 1777540888 | 22.78° C | 58% | 1016.9 hPa | - | - | - | - |
| 1777539088 | 22.22° C | 57% | 1016.8 hPa | - | - | - | - |
| 1777537288 | 22.22° C | 57% | 1016.8 hPa | - | - | - | - |
| 1777535488 | 22.78° C | 56% | 1016.7 hPa | - | - | - | - |
| 1777533688 | 22.78° C | 55% | 1016.5 hPa | - | - | - | - |
| 1777531939 | 22.78° C | 56% | 1016.4 hPa | - | - | - | - |
| 1777531887 | 22.78° C | 56% | 1016.4 hPa | - | - | - | - |
| 1777530087 | 22.78° C | 56% | 1016.2 hPa | - | - | - | - |
| 1777528287 | 22.78° C | 56% | 1015.9 hPa | - | - | - | - |
| 1777526487 | 22.78° C | 56% | 1015.8 hPa | - | - | - | - |
* Rain since midnight (hover to see other rain measurements)
** Current wind speed in m/s (hover to see current wind gust speed)